Details From SVMI - Caracas Simon Bolivar Intl
To SVMC - LA CHINITA INTL
Flight Number -
Tags decoded
Created
Modified
Stats Distance 300 nm / 556 km
Max Altitude 0 ft / 0 m
Waypoints 6
Social Downloads 0
Likes 0
Share VATSIM

Download

Looking for another format? Having issues loading an existing format? Contact us
Advertisement - Login to hide

Notes

Requested: SVMI MARES ATONO PBL MAU SVMC

Route

SVMI MARES ATONO PBL MAU SVMC

ID Type Via Altitude Latitude Longitude Leg Dist Tot Dist Heading (true) Name
O SVMI APT - 0 ft / 0 m 10.60312˚ -66.99059˚ - 0 nm - Caracas Simon Bolivar Intl
MARES FIX - 0 ft / 0 m 10.78972˚ -67.21361˚ 17 nm 17 nm 310° / 310° -
ATONO FIX - 0 ft / 0 m 10.99028˚ -67.48361˚ 19 nm 37 nm 307° / 307° -
PBL VOR - 0 ft / 0 m 10.48419˚ -68.07781˚ 46 nm 83 nm 229° / 229° PUERTO CABELLO VOR-DME
MAU VOR - 0 ft / 0 m 10.68817˚ -71.04183˚ 175 nm 259 nm 274° / 274° MENE MAUROA VOR-DME
O SVMC APT - 0 ft / 0 m 10.55821˚ -71.72786˚ 41 nm 300 nm 259° / 259° LA CHINITA INTL

Altitude Profile

Advertisement - Login to hide

Weather


0- 5 10 15 20 25 30 35+ Temperature / ° C

Clouds and Precipitation
Forecast for 2017-12-11 18:00 UTC. Updated 24 minutes ago

Ground ~20,000 ft ~40,000 ft Winds

SVMI

Details ICAO SVMI (CCS)
Name Caracas Simon Bolivar Intl
Region Venezuela
Timezone America/Caracas (UTC-4.0)
Stats Elevation 235 ft / 72 m (AMSL)
Location 10.603119° -66.990585°
Runways 2
Magnetic Variation 12.287° W

METAR

SVMI 111500Z 02002KT 9999 FEW016 28/19 Q1011

Decode

TAF

Not found

Departure Runways

ID Width Length Bearing (true) Bearing (mag) Surface Threshold Offset Overrun Length
09 145 ft / 44 m 9,825 ft / 2,995 m 75.92° 88.21° Asphalt 0 ft / 0 m 0 ft / 0 m
10 148 ft / 45 m 11,472 ft / 3,497 m 88.14° 100.43° Asphalt 0 ft / 0 m 200 ft / 61 m
27 145 ft / 44 m 9,825 ft / 2,995 m 255.92° 268.21° Asphalt 0 ft / 0 m 0 ft / 0 m
28 148 ft / 45 m 11,472 ft / 3,497 m 268.15° 280.44° Asphalt 0 ft / 0 m 200 ft / 61 m

SVMC

Details ICAO SVMC (MAR)
Name LA CHINITA INTL
Region Venezuela
Timezone America/Caracas (UTC-4.0)
Stats Elevation 235 ft / 72 m (AMSL)
Location 10.558208° -71.727858°
Runways 2
Magnetic Variation 9.562° W

METAR

SVMC 111500Z 05002KT 9999 FEW013 30/25 Q1014

Decode

TAF

Not found

Destination Runways

ID Width Length Bearing (true) Bearing (mag) Surface Threshold Offset Overrun Length
02L 148 ft / 45 m 9,897 ft / 3,017 m 22.67° 32.23° Asphalt 0 ft / 0 m 125 ft / 38 m
02R 98 ft / 30 m 8,238 ft / 2,511 m 22.61° 32.17° Asphalt 0 ft / 0 m 0 ft / 0 m
20L 98 ft / 30 m 8,238 ft / 2,511 m 202.62° 212.18° Asphalt 0 ft / 0 m 0 ft / 0 m
20R 148 ft / 45 m 9,897 ft / 3,017 m 202.67° 212.23° Asphalt 0 ft / 0 m 985 ft / 300 m

Popular Alternatives